sensor_id;sensor_type;location;lat;lon;timestamp;pressure;altitude;pressure_sealevel;temperature;humidity
76229;BME280;65021;53.174;18.160;2024-03-02T00:01:15;100597.11;;;7.26;83.28
76229;BME280;65021;53.174;18.160;2024-03-02T00:03:46;100598.91;;;7.24;83.60
76229;BME280;65021;53.174;18.160;2024-03-02T00:06:13;100600.90;;;7.23;83.52
76229;BME280;65021;53.174;18.160;2024-03-02T00:08:39;100598.42;;;7.23;83.42
76229;BME280;65021;53.174;18.160;2024-03-02T00:11:07;100596.77;;;7.21;83.53
76229;BME280;65021;53.174;18.160;2024-03-02T00:13:34;100592.07;;;7.20;83.47
76229;BME280;65021;53.174;18.160;2024-03-02T00:16:02;100597.92;;;7.20;83.38
76229;BME280;65021;53.174;18.160;2024-03-02T00:18:35;100590.20;;;7.19;83.69
76229;BME280;65021;53.174;18.160;2024-03-02T00:21:03;100590.16;;;7.19;83.76
76229;BME280;65021;53.174;18.160;2024-03-02T00:23:30;100593.66;;;7.20;83.71
76229;BME280;65021;53.174;18.160;2024-03-02T00:25:58;100590.23;;;7.20;83.58
76229;BME280;65021;53.174;18.160;2024-03-02T00:28:35;100589.11;;;7.20;83.64
76229;BME280;65021;53.174;18.160;2024-03-02T00:31:09;100588.31;;;7.21;83.64
76229;BME280;65021;53.174;18.160;2024-03-02T00:33:44;100587.96;;;7.22;83.65
76229;BME280;65021;53.174;18.160;2024-03-02T00:36:13;100585.77;;;7.22;83.36
76229;BME280;65021;53.174;18.160;2024-03-02T00:41:30;100578.48;;;7.22;83.89
76229;BME280;65021;53.174;18.160;2024-03-02T00:44:06;100578.04;;;7.20;83.77
76229;BME280;65021;53.174;18.160;2024-03-02T00:46:35;100580.92;;;7.18;83.72
76229;BME280;65021;53.174;18.160;2024-03-02T00:49:04;100581.11;;;7.17;83.79
76229;BME280;65021;53.174;18.160;2024-03-02T00:51:32;100583.16;;;7.17;83.46
76229;BME280;65021;53.174;18.160;2024-03-02T00:54:05;100587.00;;;7.16;83.48
76229;BME280;65021;53.174;18.160;2024-03-02T00:56:32;100589.46;;;7.16;83.68
76229;BME280;65021;53.174;18.160;2024-03-02T00:59:01;100591.61;;;7.15;84.05
76229;BME280;65021;53.174;18.160;2024-03-02T01:01:27;100588.16;;;7.13;84.46
76229;BME280;65021;53.174;18.160;2024-03-02T01:03:54;100588.58;;;7.11;84.65
76229;BME280;65021;53.174;18.160;2024-03-02T01:06:21;100585.95;;;7.11;84.43
76229;BME280;65021;53.174;18.160;2024-03-02T01:08:48;100576.00;;;7.09;84.61
76229;BME280;65021;53.174;18.160;2024-03-02T01:11:17;100570.27;;;7.09;84.61
76229;BME280;65021;53.174;18.160;2024-03-02T01:13:45;100562.95;;;7.07;84.65
76229;BME280;65021;53.174;18.160;2024-03-02T01:16:12;100560.94;;;7.07;84.71
76229;BME280;65021;53.174;18.160;2024-03-02T01:18:39;100558.61;;;7.07;84.29
76229;BME280;65021;53.174;18.160;2024-03-02T01:21:06;100554.27;;;7.07;84.77
76229;BME280;65021;53.174;18.160;2024-03-02T01:23:32;100553.61;;;7.08;84.34
76229;BME280;65021;53.174;18.160;2024-03-02T01:25:59;100552.68;;;7.07;84.21
76229;BME280;65021;53.174;18.160;2024-03-02T01:28:26;100550.74;;;7.07;84.47
76229;BME280;65021;53.174;18.160;2024-03-02T01:30:52;100549.96;;;7.06;84.56
76229;BME280;65021;53.174;18.160;2024-03-02T01:33:19;100552.47;;;7.05;84.54
76229;BME280;65021;53.174;18.160;2024-03-02T01:35:46;100548.78;;;7.04;84.54
76229;BME280;65021;53.174;18.160;2024-03-02T01:38:13;100546.95;;;7.02;84.43
76229;BME280;65021;53.174;18.160;2024-03-02T01:40:40;100542.10;;;7.01;84.58
76229;BME280;65021;53.174;18.160;2024-03-02T01:43:07;100535.19;;;7.00;84.41
76229;BME280;65021;53.174;18.160;2024-03-02T01:45:35;100532.13;;;6.99;84.45
76229;BME280;65021;53.174;18.160;2024-03-02T01:48:07;100521.85;;;6.99;84.43
76229;BME280;65021;53.174;18.160;2024-03-02T01:50:34;100520.42;;;6.97;84.38
76229;BME280;65021;53.174;18.160;2024-03-02T01:53:01;100519.14;;;6.95;84.48
76229;BME280;65021;53.174;18.160;2024-03-02T01:55:31;100525.32;;;6.96;84.47
76229;BME280;65021;53.174;18.160;2024-03-02T01:57:59;100521.34;;;6.95;84.30
76229;BME280;65021;53.174;18.160;2024-03-02T02:00:26;100530.48;;;6.94;84.30
76229;BME280;65021;53.174;18.160;2024-03-02T02:02:53;100534.23;;;6.94;84.20
76229;BME280;65021;53.174;18.160;2024-03-02T02:05:20;100532.20;;;6.95;84.39
76229;BME280;65021;53.174;18.160;2024-03-02T02:07:48;100532.05;;;6.96;84.39
76229;BME280;65021;53.174;18.160;2024-03-02T02:10:15;100532.54;;;6.97;84.29
76229;BME280;65021;53.174;18.160;2024-03-02T02:12:42;100529.81;;;6.96;84.17
76229;BME280;65021;53.174;18.160;2024-03-02T02:15:28;100527.29;;;6.96;84.34
76229;BME280;65021;53.174;18.160;2024-03-02T02:17:56;100530.09;;;6.96;84.28
76229;BME280;65021;53.174;18.160;2024-03-02T02:20:24;100533.36;;;6.94;84.31
76229;BME280;65021;53.174;18.160;2024-03-02T02:25:21;100531.40;;;6.94;84.13
76229;BME280;65021;53.174;18.160;2024-03-02T02:27:48;100532.04;;;6.92;84.25
76229;BME280;65021;53.174;18.160;2024-03-02T02:30:19;100527.40;;;6.88;83.98
76229;BME280;65021;53.174;18.160;2024-03-02T02:32:46;100528.88;;;6.83;84.16
76229;BME280;65021;53.174;18.160;2024-03-02T02:35:13;100523.73;;;6.78;84.31
76229;BME280;65021;53.174;18.160;2024-03-02T02:37:40;100526.52;;;6.76;84.38
76229;BME280;65021;53.174;18.160;2024-03-02T02:40:07;100530.54;;;6.74;84.34
76229;BME280;65021;53.174;18.160;2024-03-02T02:42:33;100527.46;;;6.74;84.51
76229;BME280;65021;53.174;18.160;2024-03-02T02:45:00;100528.20;;;6.75;84.42
76229;BME280;65021;53.174;18.160;2024-03-02T02:47:27;100535.52;;;6.76;84.49
76229;BME280;65021;53.174;18.160;2024-03-02T02:49:55;100531.55;;;6.78;84.41
76229;BME280;65021;53.174;18.160;2024-03-02T02:52:22;100529.41;;;6.79;84.55
76229;BME280;65021;53.174;18.160;2024-03-02T02:54:49;100528.78;;;6.81;84.40
76229;BME280;65021;53.174;18.160;2024-03-02T02:57:15;100527.58;;;6.83;84.32
76229;BME280;65021;53.174;18.160;2024-03-02T02:59:42;100527.05;;;6.82;84.35
76229;BME280;65021;53.174;18.160;2024-03-02T03:02:08;100528.50;;;6.79;84.27
76229;BME280;65021;53.174;18.160;2024-03-02T03:04:35;100526.78;;;6.75;84.31
76229;BME280;65021;53.174;18.160;2024-03-02T03:07:01;100523.27;;;6.70;84.28
76229;BME280;65021;53.174;18.160;2024-03-02T03:09:28;100529.70;;;6.62;84.29
76229;BME280;65021;53.174;18.160;2024-03-02T03:11:55;100528.79;;;6.54;84.35
76229;BME280;65021;53.174;18.160;2024-03-02T03:14:21;100530.14;;;6.48;84.37
76229;BME280;65021;53.174;18.160;2024-03-02T03:16:48;100530.34;;;6.41;84.47
76229;BME280;65021;53.174;18.160;2024-03-02T03:19:15;100528.27;;;6.37;84.36
76229;BME280;65021;53.174;18.160;2024-03-02T03:21:43;100534.89;;;6.31;84.58
76229;BME280;65021;53.174;18.160;2024-03-02T03:24:10;100535.12;;;6.27;84.51
76229;BME280;65021;53.174;18.160;2024-03-02T03:26:36;100535.04;;;6.24;84.68
76229;BME280;65021;53.174;18.160;2024-03-02T03:29:03;100530.03;;;6.23;84.91
76229;BME280;65021;53.174;18.160;2024-03-02T03:31:30;100533.96;;;6.25;85.14
76229;BME280;65021;53.174;18.160;2024-03-02T03:33:56;100529.75;;;6.27;84.94
76229;BME280;65021;53.174;18.160;2024-03-02T03:36:24;100527.04;;;6.29;84.86
76229;BME280;65021;53.174;18.160;2024-03-02T03:38:50;100520.44;;;6.29;85.03
76229;BME280;65021;53.174;18.160;2024-03-02T03:41:17;100523.45;;;6.31;85.05
76229;BME280;65021;53.174;18.160;2024-03-02T03:43:43;100522.52;;;6.33;84.94
76229;BME280;65021;53.174;18.160;2024-03-02T03:46:10;100514.86;;;6.34;84.83
76229;BME280;65021;53.174;18.160;2024-03-02T03:48:36;100518.20;;;6.36;84.93
76229;BME280;65021;53.174;18.160;2024-03-02T03:51:03;100519.85;;;6.36;84.82
76229;BME280;65021;53.174;18.160;2024-03-02T03:53:30;100513.91;;;6.37;84.77
76229;BME280;65021;53.174;18.160;2024-03-02T03:55:57;100506.48;;;6.37;84.80
76229;BME280;65021;53.174;18.160;2024-03-02T03:58:23;100509.31;;;6.38;84.89
76229;BME280;65021;53.174;18.160;2024-03-02T04:00:50;100507.29;;;6.39;84.65
76229;BME280;65021;53.174;18.160;2024-03-02T04:03:16;100506.79;;;6.40;84.50
76229;BME280;65021;53.174;18.160;2024-03-02T04:05:43;100500.39;;;6.40;84.57
76229;BME280;65021;53.174;18.160;2024-03-02T04:08:10;100500.02;;;6.42;84.59
76229;BME280;65021;53.174;18.160;2024-03-02T04:10:38;100501.91;;;6.43;84.50
76229;BME280;65021;53.174;18.160;2024-03-02T04:13:04;100503.98;;;6.44;84.44
76229;BME280;65021;53.174;18.160;2024-03-02T04:15:31;100503.38;;;6.44;84.34
76229;BME280;65021;53.174;18.160;2024-03-02T04:17:57;100501.52;;;6.47;84.46
76229;BME280;65021;53.174;18.160;2024-03-02T04:20:24;100502.91;;;6.49;84.33
76229;BME280;65021;53.174;18.160;2024-03-02T04:22:51;100498.04;;;6.50;84.33
76229;BME280;65021;53.174;18.160;2024-03-02T04:25:18;100501.64;;;6.53;84.08
76229;BME280;65021;53.174;18.160;2024-03-02T04:27:46;100500.23;;;6.54;84.07
76229;BME280;65021;53.174;18.160;2024-03-02T04:30:13;100503.13;;;6.55;84.09
76229;BME280;65021;53.174;18.160;2024-03-02T04:32:40;100502.94;;;6.56;83.99
76229;BME280;65021;53.174;18.160;2024-03-02T04:35:07;100506.29;;;6.56;83.93
76229;BME280;65021;53.174;18.160;2024-03-02T04:37:36;100505.46;;;6.56;84.01
76229;BME280;65021;53.174;18.160;2024-03-02T04:40:03;100496.64;;;6.57;83.85
76229;BME280;65021;53.174;18.160;2024-03-02T04:42:30;100493.88;;;6.57;83.81
76229;BME280;65021;53.174;18.160;2024-03-02T04:44:57;100491.27;;;6.57;83.91
76229;BME280;65021;53.174;18.160;2024-03-02T04:47:23;100498.43;;;6.58;83.84
76229;BME280;65021;53.174;18.160;2024-03-02T04:49:50;100499.48;;;6.59;84.01
76229;BME280;65021;53.174;18.160;2024-03-02T04:52:17;100509.23;;;6.61;83.83
76229;BME280;65021;53.174;18.160;2024-03-02T04:54:43;100509.59;;;6.62;83.81
76229;BME280;65021;53.174;18.160;2024-03-02T04:57:29;100513.94;;;6.63;83.69
76229;BME280;65021;53.174;18.160;2024-03-02T04:59:55;100508.45;;;6.63;83.65
76229;BME280;65021;53.174;18.160;2024-03-02T05:02:22;100504.55;;;6.63;83.69
76229;BME280;65021;53.174;18.160;2024-03-02T05:04:48;100511.11;;;6.63;83.85
76229;BME280;65021;53.174;18.160;2024-03-02T05:07:15;100515.30;;;6.63;83.71
76229;BME280;65021;53.174;18.160;2024-03-02T05:09:42;100511.45;;;6.64;83.80
76229;BME280;65021;53.174;18.160;2024-03-02T05:12:09;100520.63;;;6.65;83.68
76229;BME280;65021;53.174;18.160;2024-03-02T05:14:42;100519.55;;;6.65;83.49
76229;BME280;65021;53.174;18.160;2024-03-02T05:17:09;100520.65;;;6.66;83.65
76229;BME280;65021;53.174;18.160;2024-03-02T05:19:35;100527.48;;;6.66;83.46
76229;BME280;65021;53.174;18.160;2024-03-02T05:22:02;100531.66;;;6.66;83.76
76229;BME280;65021;53.174;18.160;2024-03-02T05:24:29;100540.50;;;6.67;83.39
76229;BME280;65021;53.174;18.160;2024-03-02T05:26:56;100539.23;;;6.67;83.58
76229;BME280;65021;53.174;18.160;2024-03-02T05:29:22;100536.95;;;6.67;83.68
76229;BME280;65021;53.174;18.160;2024-03-02T05:31:49;100534.58;;;6.66;83.68
76229;BME280;65021;53.174;18.160;2024-03-02T05:34:16;100540.83;;;6.66;83.66
76229;BME280;65021;53.174;18.160;2024-03-02T05:36:42;100543.23;;;6.66;83.65
76229;BME280;65021;53.174;18.160;2024-03-02T05:39:09;100539.85;;;6.65;83.61
76229;BME280;65021;53.174;18.160;2024-03-02T05:41:36;100536.73;;;6.64;83.60
76229;BME280;65021;53.174;18.160;2024-03-02T05:44:04;100540.56;;;6.65;83.52
76229;BME280;65021;53.174;18.160;2024-03-02T05:46:31;100541.50;;;6.66;83.56
76229;BME280;65021;53.174;18.160;2024-03-02T05:48:59;100539.88;;;6.67;83.46
76229;BME280;65021;53.174;18.160;2024-03-02T05:51:26;100549.21;;;6.67;83.25
76229;BME280;65021;53.174;18.160;2024-03-02T05:53:53;100551.27;;;6.67;83.45
76229;BME280;65021;53.174;18.160;2024-03-02T05:56:19;100555.38;;;6.67;83.60
76229;BME280;65021;53.174;18.160;2024-03-02T05:58:46;100561.80;;;6.66;83.52
76229;BME280;65021;53.174;18.160;2024-03-02T06:01:19;100566.33;;;6.67;83.48
76229;BME280;65021;53.174;18.160;2024-03-02T06:03:46;100565.73;;;6.67;83.51
76229;BME280;65021;53.174;18.160;2024-03-02T06:06:13;100561.99;;;6.68;83.45
76229;BME280;65021;53.174;18.160;2024-03-02T06:08:39;100563.61;;;6.69;83.48
76229;BME280;65021;53.174;18.160;2024-03-02T06:11:06;100570.86;;;6.70;83.44
76229;BME280;65021;53.174;18.160;2024-03-02T06:13:32;100575.73;;;6.72;83.36
76229;BME280;65021;53.174;18.160;2024-03-02T06:15:59;100569.83;;;6.73;83.36
76229;BME280;65021;53.174;18.160;2024-03-02T06:18:26;100569.56;;;6.75;83.40
76229;BME280;65021;53.174;18.160;2024-03-02T06:20:52;100570.23;;;6.78;83.38
76229;BME280;65021;53.174;18.160;2024-03-02T06:23:19;100572.63;;;6.80;83.38
76229;BME280;65021;53.174;18.160;2024-03-02T06:25:45;100569.76;;;6.81;83.19
76229;BME280;65021;53.174;18.160;2024-03-02T06:28:12;100572.55;;;6.82;83.20
76229;BME280;65021;53.174;18.160;2024-03-02T06:30:41;100580.83;;;6.84;83.18
76229;BME280;65021;53.174;18.160;2024-03-02T06:33:09;100579.91;;;6.84;83.19
76229;BME280;65021;53.174;18.160;2024-03-02T06:35:36;100579.84;;;6.86;82.93
76229;BME280;65021;53.174;18.160;2024-03-02T06:38:03;100579.76;;;6.86;83.21
76229;BME280;65021;53.174;18.160;2024-03-02T06:40:29;100582.13;;;6.86;83.14
76229;BME280;65021;53.174;18.160;2024-03-02T06:42:56;100581.95;;;6.88;83.08
76229;BME280;65021;53.174;18.160;2024-03-02T06:45:22;100581.02;;;6.88;82.99
76229;BME280;65021;53.174;18.160;2024-03-02T06:47:49;100582.59;;;6.89;83.23
76229;BME280;65021;53.174;18.160;2024-03-02T06:50:16;100572.63;;;6.89;82.82
76229;BME280;65021;53.174;18.160;2024-03-02T06:52:42;100574.73;;;6.91;82.78
76229;BME280;65021;53.174;18.160;2024-03-02T06:55:09;100568.98;;;6.93;82.88
76229;BME280;65021;53.174;18.160;2024-03-02T06:57:36;100564.16;;;6.96;82.95
76229;BME280;65021;53.174;18.160;2024-03-02T07:00:03;100558.71;;;7.00;82.74
76229;BME280;65021;53.174;18.160;2024-03-02T07:02:31;100557.94;;;7.04;82.41
76229;BME280;65021;53.174;18.160;2024-03-02T07:04:58;100555.73;;;7.09;82.47
76229;BME280;65021;53.174;18.160;2024-03-02T07:07:25;100565.95;;;7.13;82.44
76229;BME280;65021;53.174;18.160;2024-03-02T07:09:52;100580.32;;;7.14;82.67
76229;BME280;65021;53.174;18.160;2024-03-02T07:12:18;100580.56;;;7.16;82.34
76229;BME280;65021;53.174;18.160;2024-03-02T07:14:45;100572.43;;;7.20;82.29
76229;BME280;65021;53.174;18.160;2024-03-02T07:17:30;100579.02;;;7.26;82.02
76229;BME280;65021;53.174;18.160;2024-03-02T07:19:57;100579.11;;;7.32;82.12
76229;BME280;65021;53.174;18.160;2024-03-02T07:22:24;100579.02;;;7.40;81.88
76229;BME280;65021;53.174;18.160;2024-03-02T07:24:51;100576.39;;;7.48;81.74
76229;BME280;65021;53.174;18.160;2024-03-02T07:27:18;100573.21;;;7.56;81.52
76229;BME280;65021;53.174;18.160;2024-03-02T07:29:45;100574.69;;;7.60;80.94
76229;BME280;65021;53.174;18.160;2024-03-02T07:32:11;100582.89;;;7.64;80.38
76229;BME280;65021;53.174;18.160;2024-03-02T07:34:38;100593.70;;;7.69;80.35
76229;BME280;65021;53.174;18.160;2024-03-02T07:37:05;100605.73;;;7.78;80.91
76229;BME280;65021;53.174;18.160;2024-03-02T07:39:32;100612.18;;;7.88;81.10
76229;BME280;65021;53.174;18.160;2024-03-02T07:41:59;100605.20;;;8.01;80.91
76229;BME280;65021;53.174;18.160;2024-03-02T07:44:26;100603.16;;;8.16;80.78
76229;BME280;65021;53.174;18.160;2024-03-02T07:46:53;100601.16;;;8.26;79.48
76229;BME280;65021;53.174;18.160;2024-03-02T07:49:19;100600.88;;;8.38;79.46
76229;BME280;65021;53.174;18.160;2024-03-02T07:51:46;100599.57;;;8.53;79.77
76229;BME280;65021;53.174;18.160;2024-03-02T07:54:13;100597.23;;;8.71;79.69
76229;BME280;65021;53.174;18.160;2024-03-02T07:56:39;100597.80;;;8.95;79.35
76229;BME280;65021;53.174;18.160;2024-03-02T07:59:06;100593.04;;;9.22;78.52
76229;BME280;65021;53.174;18.160;2024-03-02T08:01:33;100592.13;;;9.51;78.12
76229;BME280;65021;53.174;18.160;2024-03-02T08:04:01;100587.55;;;9.67;77.05
76229;BME280;65021;53.174;18.160;2024-03-02T08:06:30;100597.31;;;9.75;76.80
76229;BME280;65021;53.174;18.160;2024-03-02T08:08:57;100600.35;;;9.85;77.55
76229;BME280;65021;53.174;18.160;2024-03-02T08:11:24;100602.13;;;9.95;77.13
76229;BME280;65021;53.174;18.160;2024-03-02T08:13:51;100603.63;;;9.94;76.19
76229;BME280;65021;53.174;18.160;2024-03-02T08:16:19;100609.04;;;9.90;76.60
76229;BME280;65021;53.174;18.160;2024-03-02T08:18:51;100612.90;;;9.85;76.29
76229;BME280;65021;53.174;18.160;2024-03-02T08:21:18;100622.01;;;9.84;76.72
76229;BME280;65021;53.174;18.160;2024-03-02T08:23:45;100625.36;;;9.79;75.96
76229;BME280;65021;53.174;18.160;2024-03-02T08:26:12;100630.70;;;9.67;75.11
76229;BME280;65021;53.174;18.160;2024-03-02T08:28:39;100626.33;;;9.58;75.18
76229;BME280;65021;53.174;18.160;2024-03-02T08:31:09;100626.56;;;9.53;75.62
76229;BME280;65021;53.174;18.160;2024-03-02T08:33:36;100623.13;;;9.54;75.83
76229;BME280;65021;53.174;18.160;2024-03-02T08:36:03;100615.82;;;9.55;75.44
76229;BME280;65021;53.174;18.160;2024-03-02T08:38:30;100615.05;;;9.66;75.69
76229;BME280;65021;53.174;18.160;2024-03-02T08:40:57;100610.55;;;9.81;75.57
76229;BME280;65021;53.174;18.160;2024-03-02T08:43:23;100609.16;;;10.03;75.96
76229;BME280;65021;53.174;18.160;2024-03-02T08:45:51;100614.13;;;10.23;75.11
76229;BME280;65021;53.174;18.160;2024-03-02T08:48:17;100622.58;;;10.45;75.34
76229;BME280;65021;53.174;18.160;2024-03-02T08:50:44;100621.85;;;10.52;74.36
76229;BME280;65021;53.174;18.160;2024-03-02T08:53:11;100615.48;;;10.52;74.27
76229;BME280;65021;53.174;18.160;2024-03-02T08:55:38;100618.38;;;10.38;73.39
76229;BME280;65021;53.174;18.160;2024-03-02T08:58:05;100622.08;;;10.18;73.91
76229;BME280;65021;53.174;18.160;2024-03-02T09:00:31;100630.39;;;9.99;74.15
76229;BME280;65021;53.174;18.160;2024-03-02T09:02:58;100638.27;;;9.84;74.37
76229;BME280;65021;53.174;18.160;2024-03-02T09:05:25;100639.10;;;9.73;74.99
76229;BME280;65021;53.174;18.160;2024-03-02T09:07:52;100636.75;;;9.68;75.28
76229;BME280;65021;53.174;18.160;2024-03-02T09:10:18;100637.53;;;9.78;75.33
76229;BME280;65021;53.174;18.160;2024-03-02T09:12:45;100637.20;;;10.00;75.13
76229;BME280;65021;53.174;18.160;2024-03-02T09:15:12;100638.30;;;10.23;74.99
76229;BME280;65021;53.174;18.160;2024-03-02T09:17:39;100638.91;;;10.41;74.87
76229;BME280;65021;53.174;18.160;2024-03-02T09:20:06;100634.04;;;10.48;73.95
76229;BME280;65021;53.174;18.160;2024-03-02T09:22:33;100638.05;;;10.42;73.79
76229;BME280;65021;53.174;18.160;2024-03-02T09:24:59;100651.23;;;10.37;73.75
76229;BME280;65021;53.174;18.160;2024-03-02T09:27:26;100647.77;;;10.34;73.90
76229;BME280;65021;53.174;18.160;2024-03-02T09:29:53;100646.74;;;10.30;73.80
76229;BME280;65021;53.174;18.160;2024-03-02T09:32:19;100636.16;;;10.26;73.56
76229;BME280;65021;53.174;18.160;2024-03-02T09:34:46;100631.56;;;10.26;73.82
76229;BME280;65021;53.174;18.160;2024-03-02T09:37:14;100626.77;;;10.31;74.24
76229;BME280;65021;53.174;18.160;2024-03-02T09:39:43;100619.33;;;10.39;73.49
76229;BME280;65021;53.174;18.160;2024-03-02T09:42:11;100626.59;;;10.47;73.58
76229;BME280;65021;53.174;18.160;2024-03-02T09:44:39;100630.05;;;10.57;73.53
76229;BME280;65021;53.174;18.160;2024-03-02T09:47:07;100635.09;;;10.69;73.10
76229;BME280;65021;53.174;18.160;2024-03-02T09:49:34;100636.58;;;10.72;72.70
76229;BME280;65021;53.174;18.160;2024-03-02T09:52:02;100635.27;;;10.72;72.37
76229;BME280;65021;53.174;18.160;2024-03-02T09:54:29;100637.48;;;10.76;72.61
76229;BME280;65021;53.174;18.160;2024-03-02T09:56:56;100642.09;;;10.81;72.55
76229;BME280;65021;53.174;18.160;2024-03-02T09:59:23;100642.64;;;10.86;72.56
76229;BME280;65021;53.174;18.160;2024-03-02T10:01:59;100637.05;;;10.89;72.28
76229;BME280;65021;53.174;18.160;2024-03-02T10:04:28;100634.77;;;10.95;72.51
76229;BME280;65021;53.174;18.160;2024-03-02T10:07:17;100643.44;;;11.03;72.00
76229;BME280;65021;53.174;18.160;2024-03-02T10:09:46;100651.37;;;11.17;71.81
76229;BME280;65021;53.174;18.160;2024-03-02T10:12:15;100646.39;;;11.35;72.26
76229;BME280;65021;53.174;18.160;2024-03-02T10:14:42;100639.20;;;11.47;71.79
76229;BME280;65021;53.174;18.160;2024-03-02T10:17:13;100645.63;;;11.61;71.60
76229;BME280;65021;53.174;18.160;2024-03-02T10:19:40;100646.10;;;11.77;70.37
76229;BME280;65021;53.174;18.160;2024-03-02T10:22:09;100638.31;;;11.75;69.19
76229;BME280;65021;53.174;18.160;2024-03-02T10:24:37;100633.64;;;11.80;69.88
76229;BME280;65021;53.174;18.160;2024-03-02T10:27:16;100633.27;;;11.90;70.17
76229;BME280;65021;53.174;18.160;2024-03-02T10:29:46;100633.63;;;11.98;69.50
76229;BME280;65021;53.174;18.160;2024-03-02T10:32:13;100631.30;;;12.09;69.82
76229;BME280;65021;53.174;18.160;2024-03-02T10:34:40;100627.40;;;12.19;68.76
76229;BME280;65021;53.174;18.160;2024-03-02T10:37:08;100626.00;;;12.31;68.52
76229;BME280;65021;53.174;18.160;2024-03-02T10:39:35;100623.46;;;12.33;67.93
76229;BME280;65021;53.174;18.160;2024-03-02T10:42:03;100627.80;;;12.27;67.94
76229;BME280;65021;53.174;18.160;2024-03-02T10:44:30;100619.98;;;12.29;68.64
76229;BME280;65021;53.174;18.160;2024-03-02T10:47:03;100613.91;;;12.28;67.84
76229;BME280;65021;53.174;18.160;2024-03-02T10:49:32;100624.86;;;12.31;67.98
76229;BME280;65021;53.174;18.160;2024-03-02T10:51:59;100621.50;;;12.33;67.22
76229;BME280;65021;53.174;18.160;2024-03-02T10:54:26;100615.77;;;12.39;67.86
76229;BME280;65021;53.174;18.160;2024-03-02T10:56:58;100619.70;;;12.36;67.95
76229;BME280;65021;53.174;18.160;2024-03-02T11:01:56;100618.06;;;12.49;67.56
76229;BME280;65021;53.174;18.160;2024-03-02T11:04:27;100615.17;;;12.51;66.88
76229;BME280;65021;53.174;18.160;2024-03-02T11:07:08;100616.51;;;12.47;66.54
76229;BME280;65021;53.174;18.160;2024-03-02T11:09:42;100615.41;;;12.45;66.29
76229;BME280;65021;53.174;18.160;2024-03-02T11:13:11;100613.60;;;12.45;66.87
76229;BME280;65021;53.174;18.160;2024-03-02T11:15:31;100602.63;;;12.48;66.78
76229;BME280;65021;53.174;18.160;2024-03-02T11:17:59;100603.31;;;12.53;66.91
76229;BME280;65021;53.174;18.160;2024-03-02T11:20:26;100603.09;;;12.50;66.27
76229;BME280;65021;53.174;18.160;2024-03-02T11:22:55;100608.59;;;12.56;66.41
76229;BME280;65021;53.174;18.160;2024-03-02T11:25:26;100605.80;;;12.55;66.28
76229;BME280;65021;53.174;18.160;2024-03-02T11:33:03;100598.94;;;12.45;66.17
76229;BME280;65021;53.174;18.160;2024-03-02T11:35:45;100596.80;;;12.45;66.32
76229;BME280;65021;53.174;18.160;2024-03-02T11:38:15;100600.38;;;12.44;66.80
76229;BME280;65021;53.174;18.160;2024-03-02T11:40:42;100598.95;;;12.50;66.69
76229;BME280;65021;53.174;18.160;2024-03-02T11:43:09;100592.54;;;12.60;66.84
76229;BME280;65021;53.174;18.160;2024-03-02T11:45:36;100593.98;;;12.59;66.42
76229;BME280;65021;53.174;18.160;2024-03-02T11:48:06;100595.44;;;12.62;66.81
76229;BME280;65021;53.174;18.160;2024-03-02T11:51:01;100590.95;;;12.72;66.96
76229;BME280;65021;53.174;18.160;2024-03-02T11:53:28;100588.36;;;12.74;66.36
76229;BME280;65021;53.174;18.160;2024-03-02T11:56:01;100589.95;;;12.74;66.89
76229;BME280;65021;53.174;18.160;2024-03-02T11:58:28;100586.76;;;12.80;66.54
76229;BME280;65021;53.174;18.160;2024-03-02T12:00:56;100583.91;;;12.85;66.30
76229;BME280;65021;53.174;18.160;2024-03-02T12:03:24;100586.19;;;12.75;65.37
76229;BME280;65021;53.174;18.160;2024-03-02T12:05:53;100587.41;;;12.72;65.00
76229;BME280;65021;53.174;18.160;2024-03-02T12:08:20;100584.84;;;12.78;65.96
76229;BME280;65021;53.174;18.160;2024-03-02T12:11:01;100586.73;;;12.78;65.37
76229;BME280;65021;53.174;18.160;2024-03-02T12:13:28;100584.26;;;12.76;65.49
76229;BME280;65021;53.174;18.160;2024-03-02T12:15:55;100581.71;;;12.75;65.88
76229;BME280;65021;53.174;18.160;2024-03-02T12:18:25;100583.02;;;12.81;66.16
76229;BME280;65021;53.174;18.160;2024-03-02T12:20:52;100581.95;;;12.90;66.39
76229;BME280;65021;53.174;18.160;2024-03-02T12:23:19;100585.55;;;12.98;66.29
76229;BME280;65021;53.174;18.160;2024-03-02T12:25:46;100587.52;;;12.96;66.25
76229;BME280;65021;53.174;18.160;2024-03-02T12:28:13;100589.41;;;12.77;65.35
76229;BME280;65021;53.174;18.160;2024-03-02T12:30:40;100583.16;;;12.67;65.84
76229;BME280;65021;53.174;18.160;2024-03-02T12:33:06;100583.48;;;12.69;66.32
76229;BME280;65021;53.174;18.160;2024-03-02T12:35:33;100584.09;;;12.60;66.87
76229;BME280;65021;53.174;18.160;2024-03-02T12:38:00;100580.17;;;12.53;66.97
76229;BME280;65021;53.174;18.160;2024-03-02T12:40:26;100574.79;;;12.52;67.43
76229;BME280;65021;53.174;18.160;2024-03-02T12:42:53;100571.64;;;12.55;67.14
76229;BME280;65021;53.174;18.160;2024-03-02T12:45:20;100573.81;;;12.51;67.26
76229;BME280;65021;53.174;18.160;2024-03-02T12:47:57;100572.81;;;12.50;67.16
76229;BME280;65021;53.174;18.160;2024-03-02T12:50:24;100572.02;;;12.43;66.99
76229;BME280;65021;53.174;18.160;2024-03-02T12:52:52;100574.92;;;12.37;67.22
76229;BME280;65021;53.174;18.160;2024-03-02T12:55:20;100572.59;;;12.39;67.58
76229;BME280;65021;53.174;18.160;2024-03-02T12:57:50;100576.58;;;12.38;67.52
76229;BME280;65021;53.174;18.160;2024-03-02T13:00:18;100575.55;;;12.36;67.59
76229;BME280;65021;53.174;18.160;2024-03-02T13:02:45;100577.33;;;12.28;67.35
76229;BME280;65021;53.174;18.160;2024-03-02T13:05:12;100578.81;;;12.24;67.75